createdAt,value
2023-03-18T00:00:27.967Z,100.00
2023-03-18T00:02:57.421Z,100.00
2023-03-18T00:05:26.519Z,100.00
2023-03-18T00:07:55.486Z,100.00
2023-03-18T00:10:25.653Z,100.00
2023-03-18T00:12:56.524Z,100.00
2023-03-18T00:15:25.662Z,100.00
2023-03-18T00:17:55.663Z,100.00
2023-03-18T00:20:39.125Z,100.00
2023-03-18T00:23:09.526Z,100.00
2023-03-18T00:25:40.306Z,100.00
2023-03-18T00:28:11.508Z,100.00
2023-03-18T00:30:43.418Z,100.00
2023-03-18T00:33:13.732Z,100.00
2023-03-18T00:35:42.818Z,100.00
2023-03-18T00:38:21.229Z,100.00
2023-03-18T00:41:01.600Z,100.00
2023-03-18T00:43:35.946Z,100.00
2023-03-18T00:46:06.099Z,100.00
2023-03-18T00:48:36.553Z,100.00
2023-03-18T00:51:07.468Z,100.00
2023-03-18T00:53:37.594Z,100.00
2023-03-18T00:56:07.524Z,100.00
2023-03-18T00:58:38.305Z,100.00
2023-03-18T01:01:08.697Z,100.00
2023-03-18T01:03:38.835Z,100.00
2023-03-18T01:06:09.339Z,100.00
2023-03-18T01:08:39.287Z,100.00
2023-03-18T01:11:09.223Z,100.00
2023-03-18T01:13:41.290Z,100.00
2023-03-18T01:16:12.565Z,100.00
2023-03-18T01:18:43.504Z,100.00
2023-03-18T01:21:13.755Z,100.00
2023-03-18T01:23:43.573Z,100.00
2023-03-18T01:26:12.618Z,100.00
2023-03-18T01:28:43.794Z,100.00
2023-03-18T01:31:13.967Z,100.00
2023-03-18T01:33:42.667Z,100.00
2023-03-18T01:36:12.687Z,100.00
2023-03-18T01:38:43.114Z,100.00
2023-03-18T01:41:13.428Z,100.00
2023-03-18T01:43:45.609Z,100.00
2023-03-18T01:46:38.925Z,100.00
2023-03-18T01:49:13.830Z,100.00
2023-03-18T01:51:48.436Z,100.00
2023-03-18T01:54:20.548Z,100.00
2023-03-18T01:56:52.400Z,100.00
2023-03-18T01:59:28.576Z,100.00
2023-03-18T02:02:03.888Z,100.00
2023-03-18T02:04:39.752Z,100.00
2023-03-18T02:07:09.912Z,100.00
2023-03-18T02:09:40.858Z,100.00
2023-03-18T02:12:13.136Z,100.00
2023-03-18T02:14:43.815Z,100.00
2023-03-18T02:17:19.417Z,100.00
2023-03-18T02:20:04.206Z,100.00
2023-03-18T02:22:39.897Z,100.00
2023-03-18T02:25:29.098Z,100.00
2023-03-18T02:28:04.535Z,100.00
2023-03-18T02:30:40.054Z,100.00
2023-03-18T02:33:12.467Z,100.00
2023-03-18T02:35:47.062Z,100.00
2023-03-18T02:38:16.560Z,100.00
2023-03-18T02:40:46.040Z,100.00
2023-03-18T02:43:24.801Z,100.00
2023-03-18T02:46:28.627Z,100.00
2023-03-18T02:48:59.216Z,100.00
2023-03-18T02:51:29.812Z,100.00
2023-03-18T02:54:06.973Z,100.00
2023-03-18T02:56:36.944Z,100.00
2023-03-18T02:59:09.174Z,100.00
2023-03-18T03:01:41.705Z,100.00
2023-03-18T03:04:12.327Z,100.00
2023-03-18T03:06:43.764Z,100.00
2023-03-18T03:09:16.230Z,100.00
2023-03-18T03:11:48.773Z,100.00
2023-03-18T03:14:19.649Z,100.00
2023-03-18T03:16:50.184Z,100.00
2023-03-18T03:19:20.228Z,100.00
2023-03-18T03:21:50.549Z,100.00
2023-03-18T03:24:20.045Z,100.00
2023-03-18T03:26:50.654Z,100.00
2023-03-18T03:29:21.661Z,100.00
2023-03-18T03:31:50.731Z,100.00
2023-03-18T03:34:21.173Z,100.00
2023-03-18T03:36:50.630Z,100.00
2023-03-18T03:39:20.419Z,100.00
2023-03-18T03:41:50.409Z,100.00
2023-03-18T03:44:21.556Z,100.00
2023-03-18T03:46:52.148Z,100.00
2023-03-18T03:49:23.002Z,100.00
2023-03-18T03:51:53.501Z,100.00
2023-03-18T03:54:22.798Z,100.00
2023-03-18T03:56:53.762Z,100.00
2023-03-18T03:59:24.679Z,100.00
2023-03-18T04:01:54.588Z,100.00
2023-03-18T04:04:24.678Z,100.00
2023-03-18T04:06:54.124Z,100.00
2023-03-18T04:09:23.925Z,100.00
2023-03-18T04:11:54.312Z,100.00
2023-03-18T04:14:25.624Z,100.00
2023-03-18T04:16:56.621Z,100.00
2023-03-18T04:19:27.905Z,100.00
2023-03-18T04:21:58.996Z,100.00
2023-03-18T04:24:29.112Z,100.00
2023-03-18T04:26:59.017Z,100.00
2023-03-18T04:29:29.401Z,100.00
2023-03-18T04:31:59.751Z,100.00
2023-03-18T04:34:29.873Z,100.00
2023-03-18T04:36:59.798Z,100.00
2023-03-18T04:39:29.901Z,100.00
2023-03-18T04:41:58.579Z,100.00
2023-03-18T04:44:30.480Z,100.00
2023-03-18T04:46:59.847Z,100.00
2023-03-18T04:49:29.740Z,100.00
2023-03-18T04:52:00.241Z,100.00
2023-03-18T04:54:29.996Z,100.00
2023-03-18T04:57:00.260Z,100.00
2023-03-18T04:59:31.184Z,100.00
2023-03-18T05:02:00.933Z,100.00
2023-03-18T05:04:31.700Z,100.00
2023-03-18T05:07:01.660Z,100.00
2023-03-18T05:09:32.092Z,100.00
2023-03-18T05:12:02.112Z,100.00
2023-03-18T05:14:32.977Z,100.00
2023-03-18T05:17:02.409Z,100.00
2023-03-18T05:19:33.869Z,100.00
2023-03-18T05:22:02.852Z,100.00
2023-03-18T05:24:31.388Z,100.00
2023-03-18T05:27:02.119Z,100.00
2023-03-18T05:29:34.177Z,100.00
2023-03-18T05:32:04.334Z,100.00
2023-03-18T05:34:33.995Z,100.00
2023-03-18T05:37:04.217Z,100.00
2023-03-18T05:39:33.456Z,100.00
2023-03-18T05:42:05.388Z,100.00
2023-03-18T05:44:35.951Z,100.00
2023-03-18T05:47:06.504Z,100.00
2023-03-18T05:49:37.660Z,100.00
2023-03-18T05:52:07.774Z,100.00
2023-03-18T05:54:38.194Z,100.00
2023-03-18T05:57:09.230Z,100.00
2023-03-18T05:59:43.438Z,100.00
2023-03-18T06:02:13.755Z,100.00
2023-03-18T06:04:43.431Z,100.00
2023-03-18T06:07:14.179Z,100.00
2023-03-18T06:09:43.963Z,100.00
2023-03-18T06:12:14.143Z,100.00
2023-03-18T06:14:45.751Z,100.00
2023-03-18T06:17:16.092Z,100.00
2023-03-18T06:19:46.249Z,100.00
2023-03-18T06:22:18.513Z,100.00
2023-03-18T06:24:48.924Z,100.00
2023-03-18T06:27:19.162Z,100.00
2023-03-18T06:29:50.057Z,100.00
2023-03-18T06:32:19.150Z,100.00
2023-03-18T06:34:50.493Z,100.00
2023-03-18T06:37:19.659Z,100.00
2023-03-18T06:39:50.708Z,100.00
2023-03-18T06:42:21.153Z,100.00
2023-03-18T06:44:53.935Z,100.00
2023-03-18T06:47:24.658Z,100.00
2023-03-18T06:49:55.207Z,100.00
2023-03-18T06:52:25.540Z,100.00
2023-03-18T06:54:57.136Z,100.00
2023-03-18T06:57:27.086Z,100.00
2023-03-18T06:59:57.965Z,100.00
2023-03-18T07:02:28.446Z,100.00
2023-03-18T07:05:00.695Z,100.00
2023-03-18T07:07:30.337Z,100.00
2023-03-18T07:10:01.122Z,100.00
2023-03-18T07:12:31.108Z,100.00
2023-03-18T07:15:03.116Z,100.00
2023-03-18T07:17:32.395Z,100.00
2023-03-18T07:20:02.612Z,100.00
2023-03-18T07:22:32.868Z,100.00
2023-03-18T07:25:02.596Z,100.00
2023-03-18T07:27:32.005Z,100.00
2023-03-18T07:30:03.381Z,100.00
2023-03-18T07:32:32.071Z,100.00
2023-03-18T07:35:01.065Z,100.00
2023-03-18T07:37:30.586Z,100.00
2023-03-18T07:40:01.016Z,100.00
2023-03-18T07:42:31.589Z,100.00
2023-03-18T07:45:03.607Z,100.00
2023-03-18T07:47:33.620Z,100.00
2023-03-18T07:50:03.618Z,100.00
2023-03-18T07:52:33.362Z,100.00
2023-03-18T07:55:02.387Z,100.00
2023-03-18T07:57:31.870Z,100.00
2023-03-18T08:00:03.189Z,100.00
2023-03-18T08:02:34.069Z,100.00
2023-03-18T08:05:05.080Z,100.00
2023-03-18T08:07:34.855Z,100.00
2023-03-18T08:10:04.053Z,100.00
2023-03-18T08:12:50.974Z,100.00
2023-03-18T08:15:24.563Z,100.00
2023-03-18T08:17:54.485Z,100.00
2023-03-18T08:20:24.510Z,100.00
2023-03-18T08:22:52.993Z,100.00
2023-03-18T08:25:23.100Z,100.00
2023-03-18T08:27:53.599Z,100.00
2023-03-18T08:30:29.082Z,100.00
2023-03-18T08:32:58.901Z,100.00
2023-03-18T08:35:28.370Z,100.00
2023-03-18T08:37:58.446Z,100.00
2023-03-18T08:40:29.454Z,100.00
2023-03-18T08:42:59.962Z,100.00
2023-03-18T08:45:29.857Z,100.00
2023-03-18T08:47:59.285Z,100.00
2023-03-18T08:50:29.849Z,100.00
2023-03-18T08:53:01.596Z,100.00
2023-03-18T08:55:33.616Z,100.00
2023-03-18T08:58:04.988Z,100.00
2023-03-18T09:00:39.414Z,100.00
2023-03-18T09:03:09.436Z,100.00
2023-03-18T09:05:39.195Z,100.00
2023-03-18T09:08:08.440Z,100.00
2023-03-18T09:10:36.940Z,100.00
2023-03-18T09:13:06.046Z,100.00
2023-03-18T09:15:36.818Z,100.00
2023-03-18T09:18:12.302Z,100.00
2023-03-18T09:20:41.506Z,100.00
2023-03-18T09:23:12.040Z,100.00
2023-03-18T09:25:42.598Z,100.00
2023-03-18T09:28:12.249Z,100.00
2023-03-18T09:30:44.128Z,100.00
2023-03-18T09:33:14.523Z,100.00
2023-03-18T09:35:45.464Z,100.00
2023-03-18T09:38:17.856Z,100.00
2023-03-18T09:41:01.620Z,100.00
2023-03-18T09:43:53.384Z,100.00
2023-03-18T09:46:35.126Z,100.00
2023-03-18T09:49:44.077Z,100.00
2023-03-18T09:52:24.494Z,100.00
2023-03-18T09:55:03.232Z,100.00
2023-03-18T09:57:37.944Z,100.00
2023-03-18T10:00:20.470Z,100.00
2023-03-18T10:02:56.770Z,100.00
2023-03-18T10:05:34.606Z,100.00
2023-03-18T10:08:11.324Z,100.00
2023-03-18T10:10:47.384Z,100.00
2023-03-18T10:13:24.075Z,100.00
2023-03-18T10:15:58.459Z,100.00
2023-03-18T10:18:35.185Z,100.00
2023-03-18T10:21:22.015Z,100.00
2023-03-18T10:24:07.136Z,100.00
2023-03-18T10:26:47.490Z,100.00
2023-03-18T10:29:34.833Z,100.00
2023-03-18T10:32:26.691Z,100.00
2023-03-18T10:35:16.367Z,100.00
2023-03-18T10:37:59.080Z,100.00
2023-03-18T10:40:34.793Z,100.00
2023-03-18T10:43:06.316Z,100.00
2023-03-18T10:45:37.236Z,100.00
2023-03-18T10:48:15.742Z,100.00
2023-03-18T10:50:53.822Z,100.00
2023-03-18T10:53:30.017Z,100.00
2023-03-18T10:56:08.348Z,100.00
2023-03-18T10:58:37.090Z,100.00
2023-03-18T11:01:08.715Z,100.00
2023-03-18T11:03:45.058Z,100.00
2023-03-18T11:06:25.171Z,100.00
2023-03-18T11:09:06.340Z,100.00
2023-03-18T11:11:36.691Z,100.00
2023-03-18T11:14:14.221Z,100.00
2023-03-18T11:16:50.759Z,100.00
2023-03-18T11:19:39.216Z,100.00
2023-03-18T11:22:21.558Z,100.00
2023-03-18T11:25:07.860Z,100.00
2023-03-18T11:27:40.928Z,100.00
2023-03-18T11:30:33.710Z,100.00
2023-03-18T11:33:16.103Z,100.00
2023-03-18T11:35:53.027Z,100.00
2023-03-18T11:38:28.964Z,100.00
2023-03-18T11:41:09.520Z,100.00
2023-03-18T11:43:40.512Z,100.00
2023-03-18T11:46:14.132Z,100.00
2023-03-18T11:48:45.436Z,100.00
2023-03-18T11:51:38.318Z,100.00
2023-03-18T11:54:25.500Z,100.00
2023-03-18T11:57:01.565Z,100.00
2023-03-18T11:59:48.987Z,100.00
2023-03-18T12:02:51.500Z,100.00
2023-03-18T12:05:57.220Z,100.00
2023-03-18T12:08:45.667Z,100.00
2023-03-18T12:11:34.137Z,100.00
2023-03-18T12:14:16.252Z,99.70
2023-03-18T12:17:04.452Z,99.79
2023-03-18T12:20:16.915Z,99.10
2023-03-18T12:23:04.943Z,100.00
2023-03-18T12:26:00.792Z,99.70
2023-03-18T12:28:53.928Z,97.58
2023-03-18T12:32:00.300Z,95.85
2023-03-18T12:35:09.253Z,95.87
2023-03-18T12:37:55.659Z,97.00
2023-03-18T12:40:44.497Z,94.54
2023-03-18T12:44:02.290Z,95.99
2023-03-18T12:46:40.462Z,95.43
2023-03-18T12:49:22.928Z,96.07
2023-03-18T12:52:02.162Z,95.61
2023-03-18T12:54:41.157Z,94.61
2023-03-18T12:57:19.886Z,94.24
2023-03-18T13:00:02.416Z,95.20
2023-03-18T13:02:48.709Z,94.66
2023-03-18T13:05:35.261Z,92.35
2023-03-18T13:08:54.251Z,90.75
2023-03-18T13:11:56.037Z,90.90
2023-03-18T13:14:35.517Z,90.61
2023-03-18T13:17:12.192Z,90.56
2023-03-18T13:19:44.902Z,91.48
2023-03-18T13:23:09.664Z,88.76
2023-03-18T13:25:48.194Z,87.21
2023-03-18T13:28:43.329Z,87.65
2023-03-18T13:31:27.822Z,88.32
2023-03-18T13:34:35.686Z,90.74
2023-03-18T13:38:05.071Z,90.79
2023-03-18T13:40:58.114Z,90.25
2023-03-18T13:43:29.912Z,87.13
2023-03-18T13:46:03.225Z,86.40
2023-03-18T13:48:36.259Z,86.71
2023-03-18T13:51:22.419Z,89.16
2023-03-18T13:53:53.819Z,89.29
2023-03-18T13:56:35.220Z,87.17
2023-03-18T13:59:06.667Z,86.32
2023-03-18T14:01:37.211Z,81.93
2023-03-18T14:04:33.187Z,81.82
2023-03-18T14:07:19.066Z,81.87
2023-03-18T14:10:18.936Z,81.82
2023-03-18T14:12:49.514Z,81.80
2023-03-18T14:15:46.098Z,81.80
2023-03-18T14:18:28.370Z,80.28
2023-03-18T14:21:05.301Z,80.14
2023-03-18T14:23:44.969Z,81.99
2023-03-18T14:26:24.119Z,80.52
2023-03-18T14:29:04.297Z,82.24
2023-03-18T14:31:53.273Z,83.95
2023-03-18T14:34:32.386Z,83.35
2023-03-18T14:37:28.079Z,80.63
2023-03-18T14:40:07.310Z,80.91
2023-03-18T14:43:00.514Z,81.02
2023-03-18T14:45:36.702Z,79.80
2023-03-18T14:48:18.613Z,79.12
2023-03-18T14:50:51.635Z,80.22
2023-03-18T14:53:29.591Z,78.60
2023-03-18T14:56:04.360Z,76.75
2023-03-18T14:58:36.479Z,76.61
2023-03-18T15:01:12.173Z,78.23
2023-03-18T15:03:45.892Z,76.76
2023-03-18T15:06:23.226Z,78.15
2023-03-18T15:08:59.416Z,79.06
2023-03-18T15:11:35.491Z,76.03
2023-03-18T15:14:04.931Z,76.93
2023-03-18T15:16:36.760Z,75.50
2023-03-18T15:19:07.193Z,76.00
2023-03-18T15:21:37.721Z,75.45
2023-03-18T15:24:10.076Z,74.87
2023-03-18T15:26:43.896Z,75.05
2023-03-18T15:29:30.134Z,74.30
2023-03-18T15:32:16.568Z,73.97
2023-03-18T15:34:53.470Z,72.41
2023-03-18T15:37:41.253Z,72.03
2023-03-18T15:40:31.844Z,72.00
2023-03-18T15:43:19.560Z,72.22
2023-03-18T15:45:55.985Z,71.24
2023-03-18T15:48:35.568Z,69.19
2023-03-18T15:51:09.292Z,70.53
2023-03-18T15:53:47.680Z,70.36
2023-03-18T15:56:21.522Z,69.20
2023-03-18T15:59:01.310Z,69.15
2023-03-18T16:01:40.465Z,70.43
2023-03-18T16:04:16.226Z,70.33
2023-03-18T16:06:46.273Z,69.97
2023-03-18T16:09:18.826Z,70.39
2023-03-18T16:11:51.725Z,72.89
2023-03-18T16:14:25.207Z,75.48
2023-03-18T16:16:54.998Z,72.99
2023-03-18T16:19:28.622Z,75.49
2023-03-18T16:22:00.419Z,76.80
2023-03-18T16:24:30.473Z,77.12
2023-03-18T16:27:00.884Z,77.18
2023-03-18T16:29:35.087Z,74.45
2023-03-18T16:32:06.442Z,72.70
2023-03-18T16:34:35.568Z,73.31
2023-03-18T16:37:05.804Z,73.32
2023-03-18T16:39:37.174Z,73.18
2023-03-18T16:42:08.764Z,74.94
2023-03-18T16:44:41.008Z,74.84
2023-03-18T16:47:23.707Z,75.13
2023-03-18T16:49:54.663Z,76.07
2023-03-18T16:52:23.404Z,76.78
2023-03-18T16:54:54.644Z,77.54
2023-03-18T16:57:25.561Z,79.21
2023-03-18T16:59:56.576Z,83.17
2023-03-18T17:02:35.112Z,87.00
2023-03-18T17:05:04.867Z,90.05
2023-03-18T17:07:37.479Z,92.23
2023-03-18T17:10:10.359Z,94.69
2023-03-18T17:12:41.398Z,96.70
2023-03-18T17:15:16.418Z,99.89
2023-03-18T17:17:46.052Z,100.00
2023-03-18T17:20:20.132Z,100.00
2023-03-18T17:22:49.804Z,100.00
2023-03-18T17:25:19.379Z,100.00
2023-03-18T17:27:54.814Z,100.00
2023-03-18T17:30:31.319Z,100.00
2023-03-18T17:33:01.615Z,100.00
2023-03-18T17:35:31.052Z,100.00
2023-03-18T17:38:01.367Z,100.00
2023-03-18T17:40:31.709Z,100.00
2023-03-18T17:43:02.380Z,100.00
2023-03-18T17:45:35.850Z,100.00
2023-03-18T17:48:18.007Z,100.00
2023-03-18T17:50:48.836Z,100.00
2023-03-18T17:53:33.259Z,100.00
2023-03-18T17:56:04.627Z,100.00
2023-03-18T17:58:35.972Z,100.00
2023-03-18T18:01:09.946Z,100.00
2023-03-18T18:03:40.617Z,100.00
2023-03-18T18:06:17.165Z,100.00
2023-03-18T18:08:47.610Z,100.00
2023-03-18T18:11:21.768Z,100.00
2023-03-18T18:13:51.644Z,100.00
2023-03-18T18:16:23.543Z,100.00
2023-03-18T18:18:52.280Z,100.00
2023-03-18T18:21:25.802Z,100.00
2023-03-18T18:23:55.465Z,100.00
2023-03-18T18:26:26.087Z,100.00
2023-03-18T18:28:55.469Z,100.00
2023-03-18T18:31:26.361Z,100.00
2023-03-18T18:33:55.919Z,100.00
2023-03-18T18:36:28.068Z,100.00
2023-03-18T18:38:58.870Z,100.00
2023-03-18T18:41:28.986Z,100.00
2023-03-18T18:43:57.616Z,100.00
2023-03-18T18:46:30.839Z,100.00
2023-03-18T18:49:01.463Z,100.00
2023-03-18T18:51:30.470Z,100.00
2023-03-18T18:54:02.225Z,100.00
2023-03-18T18:56:37.014Z,100.00
2023-03-18T18:59:23.085Z,100.00
2023-03-18T19:01:54.415Z,100.00
2023-03-18T19:04:24.653Z,100.00
2023-03-18T19:06:54.645Z,100.00
2023-03-18T19:09:27.567Z,100.00
2023-03-18T19:11:57.670Z,100.00
2023-03-18T19:14:29.251Z,100.00
2023-03-18T19:17:00.792Z,100.00
2023-03-18T19:19:33.451Z,100.00
2023-03-18T19:22:03.513Z,100.00
2023-03-18T19:24:36.813Z,100.00
2023-03-18T19:27:12.396Z,100.00
2023-03-18T19:29:42.314Z,100.00
2023-03-18T19:32:18.682Z,100.00
2023-03-18T19:34:48.410Z,100.00
2023-03-18T19:37:21.975Z,100.00
2023-03-18T19:39:50.576Z,100.00
2023-03-18T19:42:20.620Z,100.00
2023-03-18T19:44:50.571Z,100.00
2023-03-18T19:47:26.213Z,100.00
2023-03-18T19:49:56.242Z,100.00
2023-03-18T19:52:28.175Z,100.00
2023-03-18T19:54:58.224Z,100.00
2023-03-18T19:57:29.770Z,100.00
2023-03-18T20:00:04.989Z,100.00
2023-03-18T20:02:39.257Z,100.00
2023-03-18T20:05:19.546Z,100.00
2023-03-18T20:07:50.523Z,100.00
2023-03-18T20:10:21.972Z,100.00
2023-03-18T20:12:53.358Z,100.00
2023-03-18T20:15:27.543Z,100.00
2023-03-18T20:18:01.241Z,100.00
2023-03-18T20:20:33.753Z,100.00
2023-03-18T20:23:06.424Z,100.00
2023-03-18T20:25:40.408Z,100.00
2023-03-18T20:28:15.860Z,100.00
2023-03-18T20:30:47.987Z,100.00
2023-03-18T20:33:19.094Z,100.00
2023-03-18T20:35:53.065Z,100.00
2023-03-18T20:38:31.607Z,100.00
2023-03-18T20:41:00.473Z,100.00
2023-03-18T20:43:30.786Z,100.00
2023-03-18T20:46:01.390Z,100.00
2023-03-18T20:48:31.267Z,100.00
2023-03-18T20:51:02.594Z,100.00
2023-03-18T20:53:32.122Z,100.00
2023-03-18T20:56:01.114Z,100.00
2023-03-18T20:58:29.653Z,100.00
2023-03-18T21:00:59.284Z,100.00
2023-03-18T21:03:32.575Z,100.00
2023-03-18T21:06:03.705Z,100.00
2023-03-18T21:08:33.564Z,100.00
2023-03-18T21:11:03.689Z,100.00
2023-03-18T21:13:36.110Z,100.00
2023-03-18T21:16:08.447Z,100.00
2023-03-18T21:18:42.333Z,100.00
2023-03-18T21:21:22.003Z,100.00
2023-03-18T21:23:52.738Z,100.00
2023-03-18T21:26:22.367Z,100.00
2023-03-18T21:28:53.157Z,100.00
2023-03-18T21:31:29.395Z,100.00
2023-03-18T21:34:01.862Z,100.00
2023-03-18T21:36:32.981Z,100.00
2023-03-18T21:39:02.593Z,100.00
2023-03-18T21:41:33.361Z,100.00
2023-03-18T21:44:02.916Z,100.00
2023-03-18T21:46:32.688Z,100.00
2023-03-18T21:49:04.143Z,100.00
2023-03-18T21:51:39.447Z,100.00
2023-03-18T21:54:18.900Z,100.00
2023-03-18T21:56:47.949Z,100.00
2023-03-18T21:59:16.920Z,100.00
2023-03-18T22:01:47.042Z,100.00
2023-03-18T22:04:17.838Z,100.00
2023-03-18T22:06:46.887Z,100.00
2023-03-18T22:09:16.972Z,100.00
2023-03-18T22:11:46.531Z,100.00
2023-03-18T22:14:16.032Z,100.00
2023-03-18T22:16:45.945Z,100.00
2023-03-18T22:19:16.763Z,100.00
2023-03-18T22:21:45.991Z,100.00
2023-03-18T22:24:15.815Z,100.00
2023-03-18T22:26:45.936Z,100.00
2023-03-18T22:29:15.412Z,100.00
2023-03-18T22:31:45.485Z,100.00
2023-03-18T22:34:25.814Z,100.00
2023-03-18T22:36:54.859Z,100.00
2023-03-18T22:39:23.859Z,100.00
2023-03-18T22:41:53.403Z,100.00
2023-03-18T22:44:26.819Z,100.00
2023-03-18T22:46:56.415Z,100.00
2023-03-18T22:49:27.754Z,100.00
2023-03-18T22:51:56.930Z,100.00
2023-03-18T22:54:27.249Z,100.00
2023-03-18T22:56:58.762Z,100.00
2023-03-18T22:59:28.755Z,100.00
2023-03-18T23:01:58.250Z,100.00
2023-03-18T23:04:30.461Z,100.00
2023-03-18T23:06:59.892Z,100.00
2023-03-18T23:09:31.734Z,100.00
2023-03-18T23:12:01.336Z,100.00
2023-03-18T23:14:31.956Z,100.00
2023-03-18T23:17:01.940Z,100.00
2023-03-18T23:19:32.643Z,100.00
2023-03-18T23:22:01.728Z,100.00
2023-03-18T23:24:32.688Z,100.00
2023-03-18T23:27:03.196Z,100.00
2023-03-18T23:29:32.875Z,100.00
2023-03-18T23:32:01.605Z,100.00
2023-03-18T23:34:31.887Z,100.00
2023-03-18T23:37:01.499Z,100.00
2023-03-18T23:39:33.615Z,100.00
2023-03-18T23:42:02.143Z,100.00
2023-03-18T23:44:32.093Z,100.00
2023-03-18T23:47:02.137Z,100.00
2023-03-18T23:49:33.786Z,100.00
2023-03-18T23:52:04.893Z,100.00
2023-03-18T23:54:35.378Z,100.00
2023-03-18T23:57:07.235Z,100.00
2023-03-18T23:59:38.319Z,100.00
